sensor_id;sensor_type;location;lat;lon;timestamp;pressure;altitude;pressure_sealevel;temperature;humidity
54369;BME280;40266;52.434;17.056;2023-06-10T00:01:04;100594.56;;;17.90;69.49
54369;BME280;40266;52.434;17.056;2023-06-10T00:04:07;100596.73;;;17.94;69.17
54369;BME280;40266;52.434;17.056;2023-06-10T00:06:51;100598.19;;;17.96;68.85
54369;BME280;40266;52.434;17.056;2023-06-10T00:09:35;100594.73;;;17.98;68.59
54369;BME280;40266;52.434;17.056;2023-06-10T00:12:19;100598.34;;;18.01;68.50
54369;BME280;40266;52.434;17.056;2023-06-10T00:15:06;100593.10;;;18.03;68.30
54369;BME280;40266;52.434;17.056;2023-06-10T00:17:50;100595.97;;;18.02;68.06
54369;BME280;40266;52.434;17.056;2023-06-10T00:20:35;100594.38;;;18.02;68.06
54369;BME280;40266;52.434;17.056;2023-06-10T00:23:21;100596.16;;;18.02;67.89
54369;BME280;40266;52.434;17.056;2023-06-10T00:26:05;100597.83;;;18.00;67.77
54369;BME280;40266;52.434;17.056;2023-06-10T00:28:48;100598.41;;;17.95;67.87
54369;BME280;40266;52.434;17.056;2023-06-10T00:31:32;100598.30;;;17.90;67.71
54369;BME280;40266;52.434;17.056;2023-06-10T00:34:15;100598.73;;;17.85;67.74
54369;BME280;40266;52.434;17.056;2023-06-10T00:36:58;100603.98;;;17.78;67.74
54369;BME280;40266;52.434;17.056;2023-06-10T00:39:41;100604.91;;;17.73;67.97
54369;BME280;40266;52.434;17.056;2023-06-10T00:42:24;100605.75;;;17.70;67.98
54369;BME280;40266;52.434;17.056;2023-06-10T00:45:09;100602.61;;;17.66;68.10
54369;BME280;40266;52.434;17.056;2023-06-10T00:47:52;100603.55;;;17.61;68.24
54369;BME280;40266;52.434;17.056;2023-06-10T00:50:36;100603.54;;;17.58;68.47
54369;BME280;40266;52.434;17.056;2023-06-10T00:53:22;100601.79;;;17.54;68.67
54369;BME280;40266;52.434;17.056;2023-06-10T00:56:06;100605.69;;;17.49;68.93
54369;BME280;40266;52.434;17.056;2023-06-10T00:58:50;100606.52;;;17.43;69.15
54369;BME280;40266;52.434;17.056;2023-06-10T01:01:33;100607.21;;;17.40;69.32
54369;BME280;40266;52.434;17.056;2023-06-10T01:04:17;100609.55;;;17.35;69.75
54369;BME280;40266;52.434;17.056;2023-06-10T01:07:23;100617.08;;;17.29;70.17
54369;BME280;40266;52.434;17.056;2023-06-10T01:13:02;100619.37;;;17.18;70.64
54369;BME280;40266;52.434;17.056;2023-06-10T01:15:46;100621.89;;;17.13;70.91
54369;BME280;40266;52.434;17.056;2023-06-10T01:18:31;100626.96;;;17.10;71.04
54369;BME280;40266;52.434;17.056;2023-06-10T01:21:22;100630.20;;;17.08;71.28
54369;BME280;40266;52.434;17.056;2023-06-10T01:24:09;100632.27;;;17.05;71.43
54369;BME280;40266;52.434;17.056;2023-06-10T01:26:59;100632.91;;;17.03;72.04
54369;BME280;40266;52.434;17.056;2023-06-10T01:29:50;100632.34;;;17.00;72.11
54369;BME280;40266;52.434;17.056;2023-06-10T01:32:43;100631.91;;;16.97;72.39
54369;BME280;40266;52.434;17.056;2023-06-10T01:35:31;100633.51;;;16.93;72.52
54369;BME280;40266;52.434;17.056;2023-06-10T01:38:15;100629.98;;;16.89;72.63
54369;BME280;40266;52.434;17.056;2023-06-10T01:41:00;100633.08;;;16.87;72.64
54369;BME280;40266;52.434;17.056;2023-06-10T01:43:45;100630.71;;;16.85;72.96
54369;BME280;40266;52.434;17.056;2023-06-10T01:46:29;100631.38;;;16.82;72.93
54369;BME280;40266;52.434;17.056;2023-06-10T01:49:12;100631.45;;;16.80;73.17
54369;BME280;40266;52.434;17.056;2023-06-10T01:51:58;100637.11;;;16.75;73.44
54369;BME280;40266;52.434;17.056;2023-06-10T01:54:40;100636.21;;;16.72;73.54
54369;BME280;40266;52.434;17.056;2023-06-10T01:57:23;100632.94;;;16.70;73.77
54369;BME280;40266;52.434;17.056;2023-06-10T02:00:07;100634.26;;;16.67;73.56
54369;BME280;40266;52.434;17.056;2023-06-10T02:02:56;100633.99;;;16.65;73.73
54369;BME280;40266;52.434;17.056;2023-06-10T02:05:39;100637.52;;;16.61;73.97
54369;BME280;40266;52.434;17.056;2023-06-10T02:08:23;100641.25;;;16.56;74.04
54369;BME280;40266;52.434;17.056;2023-06-10T02:11:07;100641.80;;;16.52;74.03
54369;BME280;40266;52.434;17.056;2023-06-10T02:13:50;100640.45;;;16.46;74.08
54369;BME280;40266;52.434;17.056;2023-06-10T02:16:33;100646.79;;;16.42;74.19
54369;BME280;40266;52.434;17.056;2023-06-10T02:19:17;100648.25;;;16.37;74.01
54369;BME280;40266;52.434;17.056;2023-06-10T02:22:02;100645.73;;;16.34;74.23
54369;BME280;40266;52.434;17.056;2023-06-10T02:24:45;100650.64;;;16.35;74.23
54369;BME280;40266;52.434;17.056;2023-06-10T02:27:28;100649.80;;;16.34;74.30
54369;BME280;40266;52.434;17.056;2023-06-10T02:30:12;100651.97;;;16.32;74.41
54369;BME280;40266;52.434;17.056;2023-06-10T02:32:55;100657.15;;;16.31;74.65
54369;BME280;40266;52.434;17.056;2023-06-10T02:35:40;100656.43;;;16.27;74.57
54369;BME280;40266;52.434;17.056;2023-06-10T02:38:23;100657.94;;;16.24;74.28
54369;BME280;40266;52.434;17.056;2023-06-10T02:41:07;100655.58;;;16.22;74.18
54369;BME280;40266;52.434;17.056;2023-06-10T02:43:50;100660.89;;;16.21;74.14
54369;BME280;40266;52.434;17.056;2023-06-10T02:46:33;100658.88;;;16.18;73.87
54369;BME280;40266;52.434;17.056;2023-06-10T02:49:18;100662.23;;;16.18;73.74
54369;BME280;40266;52.434;17.056;2023-06-10T02:52:02;100661.21;;;16.17;73.57
54369;BME280;40266;52.434;17.056;2023-06-10T02:54:45;100663.01;;;16.16;73.30
54369;BME280;40266;52.434;17.056;2023-06-10T02:57:28;100667.55;;;16.17;73.06
54369;BME280;40266;52.434;17.056;2023-06-10T03:00:15;100670.32;;;16.18;73.04
54369;BME280;40266;52.434;17.056;2023-06-10T03:02:58;100669.08;;;16.19;72.80
54369;BME280;40266;52.434;17.056;2023-06-10T03:05:48;100670.47;;;16.19;72.56
54369;BME280;40266;52.434;17.056;2023-06-10T03:08:31;100672.20;;;16.20;72.36
54369;BME280;40266;52.434;17.056;2023-06-10T03:11:16;100675.43;;;16.23;72.21
54369;BME280;40266;52.434;17.056;2023-06-10T03:13:59;100674.84;;;16.25;72.16
54369;BME280;40266;52.434;17.056;2023-06-10T03:16:42;100679.70;;;16.31;71.99
54369;BME280;40266;52.434;17.056;2023-06-10T03:19:27;100679.31;;;16.36;71.76
54369;BME280;40266;52.434;17.056;2023-06-10T03:22:13;100681.77;;;16.40;71.60
54369;BME280;40266;52.434;17.056;2023-06-10T03:25:04;100686.49;;;16.45;71.45
54369;BME280;40266;52.434;17.056;2023-06-10T03:27:49;100686.87;;;16.49;71.08
54369;BME280;40266;52.434;17.056;2023-06-10T03:30:33;100685.77;;;16.54;70.85
54369;BME280;40266;52.434;17.056;2023-06-10T03:33:16;100690.15;;;16.59;70.67
54369;BME280;40266;52.434;17.056;2023-06-10T03:35:59;100689.54;;;16.65;70.30
54369;BME280;40266;52.434;17.056;2023-06-10T03:38:43;100687.39;;;16.71;69.89
54369;BME280;40266;52.434;17.056;2023-06-10T03:41:26;100691.76;;;16.75;69.66
54369;BME280;40266;52.434;17.056;2023-06-10T03:44:09;100693.02;;;16.79;69.13
54369;BME280;40266;52.434;17.056;2023-06-10T03:46:52;100700.30;;;16.82;68.74
54369;BME280;40266;52.434;17.056;2023-06-10T03:49:35;100698.08;;;16.85;68.32
54369;BME280;40266;52.434;17.056;2023-06-10T03:52:19;100699.50;;;16.89;67.91
54369;BME280;40266;52.434;17.056;2023-06-10T03:55:03;100706.58;;;16.93;67.66
54369;BME280;40266;52.434;17.056;2023-06-10T03:57:46;100712.91;;;16.97;67.44
54369;BME280;40266;52.434;17.056;2023-06-10T04:00:29;100712.25;;;17.00;66.99
54369;BME280;40266;52.434;17.056;2023-06-10T04:03:12;100717.17;;;17.04;66.41
54369;BME280;40266;52.434;17.056;2023-06-10T04:06:05;100721.90;;;17.09;66.16
54369;BME280;40266;52.434;17.056;2023-06-10T04:08:48;100732.30;;;17.14;65.84
54369;BME280;40266;52.434;17.056;2023-06-10T04:11:31;100733.92;;;17.17;65.50
54369;BME280;40266;52.434;17.056;2023-06-10T04:14:15;100742.02;;;17.21;65.53
54369;BME280;40266;52.434;17.056;2023-06-10T04:16:58;100746.64;;;17.28;65.05
54369;BME280;40266;52.434;17.056;2023-06-10T04:19:42;100752.48;;;17.37;64.83
54369;BME280;40266;52.434;17.056;2023-06-10T04:22:25;100762.34;;;17.45;64.68
54369;BME280;40266;52.434;17.056;2023-06-10T04:25:09;100766.88;;;17.54;64.53
54369;BME280;40266;52.434;17.056;2023-06-10T04:27:54;100774.65;;;17.65;64.35
54369;BME280;40266;52.434;17.056;2023-06-10T04:30:37;100776.55;;;17.90;63.52
54369;BME280;40266;52.434;17.056;2023-06-10T04:33:20;100778.23;;;17.96;63.26
54369;BME280;40266;52.434;17.056;2023-06-10T04:36:04;100778.71;;;17.93;63.33
54369;BME280;40266;52.434;17.056;2023-06-10T04:38:50;100783.01;;;17.96;63.28
54369;BME280;40266;52.434;17.056;2023-06-10T04:41:35;100784.99;;;17.99;63.47
54369;BME280;40266;52.434;17.056;2023-06-10T04:44:18;100790.27;;;18.00;63.26
54369;BME280;40266;52.434;17.056;2023-06-10T04:47:01;100793.20;;;18.01;63.00
54369;BME280;40266;52.434;17.056;2023-06-10T04:49:45;100790.94;;;18.04;62.94
54369;BME280;40266;52.434;17.056;2023-06-10T04:52:28;100790.99;;;18.10;62.83
54369;BME280;40266;52.434;17.056;2023-06-10T04:55:11;100792.94;;;18.18;62.80
54369;BME280;40266;52.434;17.056;2023-06-10T04:57:54;100800.20;;;18.29;62.37
54369;BME280;40266;52.434;17.056;2023-06-10T05:00:37;100803.70;;;18.37;62.13
54369;BME280;40266;52.434;17.056;2023-06-10T05:03:20;100808.84;;;18.48;61.75
54369;BME280;40266;52.434;17.056;2023-06-10T05:06:04;100812.29;;;18.57;61.49
54369;BME280;40266;52.434;17.056;2023-06-10T05:08:47;100815.39;;;18.70;61.09
54369;BME280;40266;52.434;17.056;2023-06-10T05:11:30;100819.34;;;18.84;59.95
54369;BME280;40266;52.434;17.056;2023-06-10T05:14:13;100822.58;;;19.00;59.77
54369;BME280;40266;52.434;17.056;2023-06-10T05:16:56;100823.96;;;19.15;59.48
54369;BME280;40266;52.434;17.056;2023-06-10T05:19:39;100827.69;;;19.42;59.02
54369;BME280;40266;52.434;17.056;2023-06-10T05:22:24;100830.55;;;19.76;58.09
54369;BME280;40266;52.434;17.056;2023-06-10T05:25:07;100830.55;;;19.90;58.11
54369;BME280;40266;52.434;17.056;2023-06-10T05:27:51;100832.65;;;19.97;57.68
54369;BME280;40266;52.434;17.056;2023-06-10T05:30:34;100834.91;;;20.00;56.95
54369;BME280;40266;52.434;17.056;2023-06-10T05:33:17;100837.42;;;20.03;56.68
54369;BME280;40266;52.434;17.056;2023-06-10T05:36:00;100841.42;;;20.05;56.39
54369;BME280;40266;52.434;17.056;2023-06-10T05:38:43;100838.27;;;20.04;56.93
54369;BME280;40266;52.434;17.056;2023-06-10T05:41:26;100841.62;;;20.15;57.03
54369;BME280;40266;52.434;17.056;2023-06-10T05:44:09;100842.11;;;20.21;56.34
54369;BME280;40266;52.434;17.056;2023-06-10T05:46:55;100847.98;;;20.27;56.12
54369;BME280;40266;52.434;17.056;2023-06-10T05:49:38;100851.45;;;20.39;56.28
54369;BME280;40266;52.434;17.056;2023-06-10T05:52:21;100851.86;;;20.54;55.63
54369;BME280;40266;52.434;17.056;2023-06-10T05:55:05;100852.37;;;20.67;55.20
54369;BME280;40266;52.434;17.056;2023-06-10T05:57:58;100854.45;;;20.99;54.22
54369;BME280;40266;52.434;17.056;2023-06-10T06:00:41;100854.33;;;21.25;53.87
54369;BME280;40266;52.434;17.056;2023-06-10T06:03:24;100860.48;;;21.26;54.31
54369;BME280;40266;52.434;17.056;2023-06-10T06:06:07;100858.19;;;21.26;54.10
54369;BME280;40266;52.434;17.056;2023-06-10T06:08:50;100857.59;;;21.24;53.47
54369;BME280;40266;52.434;17.056;2023-06-10T06:11:34;100850.75;;;21.38;54.02
54369;BME280;40266;52.434;17.056;2023-06-10T06:14:18;100852.05;;;21.76;52.32
54369;BME280;40266;52.434;17.056;2023-06-10T06:17:01;100847.45;;;21.72;52.31
54369;BME280;40266;52.434;17.056;2023-06-10T06:19:44;100852.16;;;21.68;51.90
54369;BME280;40266;52.434;17.056;2023-06-10T06:22:27;100860.98;;;21.66;51.98
54369;BME280;40266;52.434;17.056;2023-06-10T06:25:10;100853.80;;;21.58;51.71
54369;BME280;40266;52.434;17.056;2023-06-10T06:27:54;100858.56;;;21.50;52.07
54369;BME280;40266;52.434;17.056;2023-06-10T06:30:37;100854.73;;;21.46;52.79
54369;BME280;40266;52.434;17.056;2023-06-10T06:33:20;100857.08;;;21.46;52.84
54369;BME280;40266;52.434;17.056;2023-06-10T06:36:03;100859.02;;;21.51;52.63
54369;BME280;40266;52.434;17.056;2023-06-10T06:38:46;100858.74;;;21.59;52.22
54369;BME280;40266;52.434;17.056;2023-06-10T06:41:29;100860.15;;;21.57;52.51
54369;BME280;40266;52.434;17.056;2023-06-10T06:44:12;100866.45;;;21.58;52.02
54369;BME280;40266;52.434;17.056;2023-06-10T06:46:59;100866.59;;;21.50;52.32
54369;BME280;40266;52.434;17.056;2023-06-10T06:49:42;100862.80;;;21.48;53.08
54369;BME280;40266;52.434;17.056;2023-06-10T06:52:25;100862.09;;;21.54;53.20
54369;BME280;40266;52.434;17.056;2023-06-10T06:55:08;100867.81;;;21.56;52.96
54369;BME280;40266;52.434;17.056;2023-06-10T06:57:52;100867.93;;;21.48;53.33
54369;BME280;40266;52.434;17.056;2023-06-10T07:00:35;100863.55;;;21.47;53.72
54369;BME280;40266;52.434;17.056;2023-06-10T07:03:18;100866.19;;;21.54;53.84
54369;BME280;40266;52.434;17.056;2023-06-10T07:06:01;100868.14;;;21.57;53.56
54369;BME280;40266;52.434;17.056;2023-06-10T07:08:44;100869.20;;;21.56;53.73
54369;BME280;40266;52.434;17.056;2023-06-10T07:11:27;100876.20;;;21.61;53.04
54369;BME280;40266;52.434;17.056;2023-06-10T07:14:10;100871.47;;;21.66;52.95
54369;BME280;40266;52.434;17.056;2023-06-10T07:16:53;100873.37;;;21.73;52.42
54369;BME280;40266;52.434;17.056;2023-06-10T07:19:36;100875.50;;;21.79;51.40
54369;BME280;40266;52.434;17.056;2023-06-10T07:22:19;100868.38;;;21.79;51.48
54369;BME280;40266;52.434;17.056;2023-06-10T07:25:03;100868.33;;;21.77;51.39
54369;BME280;40266;52.434;17.056;2023-06-10T07:27:46;100870.08;;;21.83;51.14
54369;BME280;40266;52.434;17.056;2023-06-10T07:30:30;100863.00;;;21.91;51.42
54369;BME280;40266;52.434;17.056;2023-06-10T07:33:13;100864.01;;;22.09;51.11
54369;BME280;40266;52.434;17.056;2023-06-10T07:35:56;100860.90;;;22.13;51.10
54369;BME280;40266;52.434;17.056;2023-06-10T07:38:38;100861.08;;;22.19;51.01
54369;BME280;40266;52.434;17.056;2023-06-10T07:41:23;100862.89;;;22.30;50.11
54369;BME280;40266;52.434;17.056;2023-06-10T07:44:07;100867.97;;;22.37;50.15
54369;BME280;40266;52.434;17.056;2023-06-10T07:46:51;100869.45;;;22.45;49.53
54369;BME280;40266;52.434;17.056;2023-06-10T07:49:34;100864.55;;;22.49;49.66
54369;BME280;40266;52.434;17.056;2023-06-10T07:52:17;100868.12;;;22.60;49.33
54369;BME280;40266;52.434;17.056;2023-06-10T07:55:02;100861.87;;;22.68;49.44
54369;BME280;40266;52.434;17.056;2023-06-10T07:57:45;100866.05;;;22.83;49.78
54369;BME280;40266;52.434;17.056;2023-06-10T08:00:28;100869.83;;;22.99;48.89
54369;BME280;40266;52.434;17.056;2023-06-10T08:03:11;100870.84;;;23.13;48.21
54369;BME280;40266;52.434;17.056;2023-06-10T08:05:54;100868.46;;;23.23;47.94
54369;BME280;40266;52.434;17.056;2023-06-10T08:08:37;100864.59;;;23.32;47.82
54369;BME280;40266;52.434;17.056;2023-06-10T08:11:25;100864.69;;;23.47;46.86
54369;BME280;40266;52.434;17.056;2023-06-10T08:14:11;100865.31;;;23.58;46.20
54369;BME280;40266;52.434;17.056;2023-06-10T08:16:53;100870.50;;;23.68;46.52
54369;BME280;40266;52.434;17.056;2023-06-10T08:19:37;100869.70;;;23.75;45.79
54369;BME280;40266;52.434;17.056;2023-06-10T08:22:20;100873.80;;;23.86;45.80
54369;BME280;40266;52.434;17.056;2023-06-10T08:25:03;100873.48;;;24.08;45.29
54369;BME280;40266;52.434;17.056;2023-06-10T08:27:46;100871.98;;;24.59;44.50
54369;BME280;40266;52.434;17.056;2023-06-10T08:30:29;100874.54;;;25.02;44.03
54369;BME280;40266;52.434;17.056;2023-06-10T08:33:13;100870.90;;;25.41;42.73
54369;BME280;40266;52.434;17.056;2023-06-10T08:35:56;100872.88;;;25.96;41.40
54369;BME280;40266;52.434;17.056;2023-06-10T08:38:39;100871.75;;;26.33;40.60
54369;BME280;40266;52.434;17.056;2023-06-10T08:41:25;100871.41;;;26.70;38.92
54369;BME280;40266;52.434;17.056;2023-06-10T08:44:17;100869.14;;;26.93;38.19
54369;BME280;40266;52.434;17.056;2023-06-10T08:47:07;100865.77;;;27.12;36.87
54369;BME280;40266;52.434;17.056;2023-06-10T08:49:55;100863.10;;;27.19;35.17
54369;BME280;40266;52.434;17.056;2023-06-10T08:52:43;100865.88;;;27.05;35.06
54369;BME280;40266;52.434;17.056;2023-06-10T08:55:35;100862.46;;;26.96;34.97
54369;BME280;40266;52.434;17.056;2023-06-10T08:58:19;100869.92;;;26.95;34.62
54369;BME280;40266;52.434;17.056;2023-06-10T09:01:02;100873.55;;;27.01;34.48
54369;BME280;40266;52.434;17.056;2023-06-10T09:03:48;100866.18;;;27.01;33.50
54369;BME280;40266;52.434;17.056;2023-06-10T09:06:32;100873.03;;;26.94;32.32
54369;BME280;40266;52.434;17.056;2023-06-10T09:09:17;100871.20;;;26.88;33.41
54369;BME280;40266;52.434;17.056;2023-06-10T09:12:03;100869.95;;;26.94;33.32
54369;BME280;40266;52.434;17.056;2023-06-10T09:14:46;100867.23;;;26.97;32.70
54369;BME280;40266;52.434;17.056;2023-06-10T09:17:29;100868.18;;;27.03;33.07
54369;BME280;40266;52.434;17.056;2023-06-10T09:20:12;100868.58;;;27.03;33.78
54369;BME280;40266;52.434;17.056;2023-06-10T09:22:56;100868.88;;;26.94;33.21
54369;BME280;40266;52.434;17.056;2023-06-10T09:25:39;100870.07;;;26.93;32.89
54369;BME280;40266;52.434;17.056;2023-06-10T09:28:22;100867.36;;;26.98;31.86
54369;BME280;40266;52.434;17.056;2023-06-10T09:31:06;100874.04;;;26.95;31.06
54369;BME280;40266;52.434;17.056;2023-06-10T09:33:51;100877.29;;;26.86;31.25
54369;BME280;40266;52.434;17.056;2023-06-10T09:36:35;100871.02;;;26.78;32.46
54369;BME280;40266;52.434;17.056;2023-06-10T09:39:18;100872.25;;;26.89;33.63
54369;BME280;40266;52.434;17.056;2023-06-10T09:42:02;100868.64;;;27.00;32.86
54369;BME280;40266;52.434;17.056;2023-06-10T09:44:51;100863.45;;;26.95;32.47
54369;BME280;40266;52.434;17.056;2023-06-10T09:47:35;100865.40;;;26.91;32.61
54369;BME280;40266;52.434;17.056;2023-06-10T09:50:19;100864.77;;;26.92;32.08
54369;BME280;40266;52.434;17.056;2023-06-10T09:53:03;100862.21;;;26.93;32.35
54369;BME280;40266;52.434;17.056;2023-06-10T09:55:49;100864.50;;;27.00;33.30
54369;BME280;40266;52.434;17.056;2023-06-10T09:58:39;100858.79;;;27.06;33.13
54369;BME280;40266;52.434;17.056;2023-06-10T10:01:24;100856.27;;;27.08;32.84
54369;BME280;40266;52.434;17.056;2023-06-10T10:04:08;100853.99;;;27.10;32.34
54369;BME280;40266;52.434;17.056;2023-06-10T10:06:51;100859.85;;;27.12;32.73
54369;BME280;40266;52.434;17.056;2023-06-10T10:09:39;100859.92;;;27.22;32.41
54369;BME280;40266;52.434;17.056;2023-06-10T10:12:23;100859.52;;;27.25;30.06
54369;BME280;40266;52.434;17.056;2023-06-10T10:15:11;100860.73;;;27.24;28.66
54369;BME280;40266;52.434;17.056;2023-06-10T10:18:06;100864.64;;;27.13;27.93
54369;BME280;40266;52.434;17.056;2023-06-10T10:20:51;100860.94;;;27.10;28.12
54369;BME280;40266;52.434;17.056;2023-06-10T10:23:40;100865.42;;;27.17;28.54
54369;BME280;40266;52.434;17.056;2023-06-10T10:26:28;100862.31;;;27.15;28.73
54369;BME280;40266;52.434;17.056;2023-06-10T10:29:30;100866.73;;;27.12;28.25
54369;BME280;40266;52.434;17.056;2023-06-10T10:32:16;100875.54;;;27.11;27.47
54369;BME280;40266;52.434;17.056;2023-06-10T10:35:11;100868.41;;;27.07;28.11
54369;BME280;40266;52.434;17.056;2023-06-10T10:37:55;100861.75;;;27.03;28.28
54369;BME280;40266;52.434;17.056;2023-06-10T10:40:39;100867.23;;;27.04;28.58
54369;BME280;40266;52.434;17.056;2023-06-10T10:43:22;100859.15;;;27.10;28.81
54369;BME280;40266;52.434;17.056;2023-06-10T10:46:15;100859.64;;;27.10;29.66
54369;BME280;40266;52.434;17.056;2023-06-10T10:48:58;100855.08;;;27.16;29.71
54369;BME280;40266;52.434;17.056;2023-06-10T10:52:01;100853.91;;;27.17;29.90
54369;BME280;40266;52.434;17.056;2023-06-10T10:54:46;100856.20;;;27.17;30.36
54369;BME280;40266;52.434;17.056;2023-06-10T10:57:29;100852.84;;;27.19;30.85
54369;BME280;40266;52.434;17.056;2023-06-10T11:00:27;100849.48;;;27.23;31.04
54369;BME280;40266;52.434;17.056;2023-06-10T11:03:15;100847.11;;;27.22;30.60
54369;BME280;40266;52.434;17.056;2023-06-10T11:06:00;100843.81;;;27.22;30.71
54369;BME280;40266;52.434;17.056;2023-06-10T11:11:30;100844.91;;;27.28;30.96
54369;BME280;40266;52.434;17.056;2023-06-10T11:14:29;100848.05;;;27.31;31.49
54369;BME280;40266;52.434;17.056;2023-06-10T11:17:19;100851.48;;;27.38;30.80
54369;BME280;40266;52.434;17.056;2023-06-10T11:20:03;100844.88;;;27.39;30.83
54369;BME280;40266;52.434;17.056;2023-06-10T11:22:59;100839.02;;;27.43;30.74
54369;BME280;40266;52.434;17.056;2023-06-10T11:25:43;100838.67;;;27.49;30.87
54369;BME280;40266;52.434;17.056;2023-06-10T11:28:27;100836.70;;;27.53;30.98
54369;BME280;40266;52.434;17.056;2023-06-10T11:31:19;100838.58;;;27.60;30.86
54369;BME280;40266;52.434;17.056;2023-06-10T11:34:04;100833.70;;;27.54;30.73
54369;BME280;40266;52.434;17.056;2023-06-10T11:36:49;100834.27;;;27.41;30.45
54369;BME280;40266;52.434;17.056;2023-06-10T11:39:32;100840.66;;;27.32;30.63
54369;BME280;40266;52.434;17.056;2023-06-10T11:42:16;100839.35;;;27.37;31.08
54369;BME280;40266;52.434;17.056;2023-06-10T11:44:59;100830.04;;;27.43;31.38
54369;BME280;40266;52.434;17.056;2023-06-10T11:48:05;100833.63;;;27.53;30.91
54369;BME280;40266;52.434;17.056;2023-06-10T11:50:49;100832.67;;;27.52;29.70
54369;BME280;40266;52.434;17.056;2023-06-10T11:53:32;100834.55;;;27.53;29.58
54369;BME280;40266;52.434;17.056;2023-06-10T11:56:26;100835.98;;;27.55;29.11
54369;BME280;40266;52.434;17.056;2023-06-10T11:59:10;100840.45;;;27.51;29.17
54369;BME280;40266;52.434;17.056;2023-06-10T12:01:53;100836.09;;;27.52;29.10
54369;BME280;40266;52.434;17.056;2023-06-10T12:04:36;100834.13;;;27.47;29.49
54369;BME280;40266;52.434;17.056;2023-06-10T12:07:19;100837.21;;;27.47;29.13
54369;BME280;40266;52.434;17.056;2023-06-10T12:10:04;100838.40;;;27.46;29.47
54369;BME280;40266;52.434;17.056;2023-06-10T12:13:08;100837.52;;;27.50;29.34
54369;BME280;40266;52.434;17.056;2023-06-10T12:15:52;100829.08;;;27.44;29.51
54369;BME280;40266;52.434;17.056;2023-06-10T12:18:36;100826.80;;;27.47;30.11
54369;BME280;40266;52.434;17.056;2023-06-10T12:21:20;100824.88;;;27.57;29.70
54369;BME280;40266;52.434;17.056;2023-06-10T12:26:53;100823.98;;;27.68;30.05
54369;BME280;40266;52.434;17.056;2023-06-10T12:29:38;100822.83;;;27.60;29.33
54369;BME280;40266;52.434;17.056;2023-06-10T12:32:21;100826.94;;;27.46;29.24
54369;BME280;40266;52.434;17.056;2023-06-10T12:35:11;100825.06;;;27.40;28.94
54369;BME280;40266;52.434;17.056;2023-06-10T12:37:59;100823.48;;;27.36;29.04
54369;BME280;40266;52.434;17.056;2023-06-10T12:40:47;100826.93;;;27.40;29.22
54369;BME280;40266;52.434;17.056;2023-06-10T12:43:31;100825.96;;;27.44;29.11
54369;BME280;40266;52.434;17.056;2023-06-10T12:46:14;100828.31;;;27.50;28.63
54369;BME280;40266;52.434;17.056;2023-06-10T12:48:57;100819.53;;;27.50;28.98
54369;BME280;40266;52.434;17.056;2023-06-10T12:51:40;100818.56;;;27.51;28.93
54369;BME280;40266;52.434;17.056;2023-06-10T12:54:23;100823.89;;;27.52;28.82
54369;BME280;40266;52.434;17.056;2023-06-10T12:57:06;100826.56;;;27.54;28.32
54369;BME280;40266;52.434;17.056;2023-06-10T12:59:50;100815.63;;;27.54;27.68
54369;BME280;40266;52.434;17.056;2023-06-10T13:02:35;100804.80;;;27.55;28.27
54369;BME280;40266;52.434;17.056;2023-06-10T13:05:19;100816.33;;;27.56;28.14
54369;BME280;40266;52.434;17.056;2023-06-10T13:08:07;100820.22;;;27.51;27.42
54369;BME280;40266;52.434;17.056;2023-06-10T13:10:52;100816.98;;;27.44;27.62
54369;BME280;40266;52.434;17.056;2023-06-10T13:13:37;100812.91;;;27.48;27.62
54369;BME280;40266;52.434;17.056;2023-06-10T13:16:20;100810.40;;;27.50;27.41
54369;BME280;40266;52.434;17.056;2023-06-10T13:19:04;100815.65;;;27.48;27.52
54369;BME280;40266;52.434;17.056;2023-06-10T13:21:48;100809.98;;;27.42;27.37
54369;BME280;40266;52.434;17.056;2023-06-10T13:24:31;100809.01;;;27.39;28.05
54369;BME280;40266;52.434;17.056;2023-06-10T13:27:14;100808.73;;;27.41;27.56
54369;BME280;40266;52.434;17.056;2023-06-10T13:29:57;100810.66;;;27.37;27.65
54369;BME280;40266;52.434;17.056;2023-06-10T13:32:40;100812.30;;;27.34;27.91
54369;BME280;40266;52.434;17.056;2023-06-10T13:35:23;100811.44;;;27.32;27.25
54369;BME280;40266;52.434;17.056;2023-06-10T13:38:06;100805.76;;;27.27;27.56
54369;BME280;40266;52.434;17.056;2023-06-10T13:40:50;100805.95;;;27.33;27.62
54369;BME280;40266;52.434;17.056;2023-06-10T13:43:33;100807.05;;;27.33;27.37
54369;BME280;40266;52.434;17.056;2023-06-10T13:46:16;100817.75;;;27.29;26.89
54369;BME280;40266;52.434;17.056;2023-06-10T13:48:59;100812.31;;;27.26;26.31
54369;BME280;40266;52.434;17.056;2023-06-10T13:51:42;100803.48;;;27.25;26.42
54369;BME280;40266;52.434;17.056;2023-06-10T13:54:25;100801.39;;;27.24;26.39
54369;BME280;40266;52.434;17.056;2023-06-10T13:57:09;100800.88;;;27.25;26.53
54369;BME280;40266;52.434;17.056;2023-06-10T13:59:53;100798.38;;;27.27;26.77
54369;BME280;40266;52.434;17.056;2023-06-10T14:02:36;100801.08;;;27.35;26.62
54369;BME280;40266;52.434;17.056;2023-06-10T14:05:20;100799.10;;;27.36;26.55
54369;BME280;40266;52.434;17.056;2023-06-10T14:08:04;100796.55;;;27.32;26.23
54369;BME280;40266;52.434;17.056;2023-06-10T14:10:47;100800.41;;;27.29;26.30
54369;BME280;40266;52.434;17.056;2023-06-10T14:13:31;100798.58;;;27.27;26.12
54369;BME280;40266;52.434;17.056;2023-06-10T14:16:14;100799.23;;;27.19;26.05
54369;BME280;40266;52.434;17.056;2023-06-10T14:18:57;100793.32;;;27.17;26.52